Aviation Digital Data Service (ADDS)

Output produced by METARs form (0511 UTC 20 April 2018)
found at http://aviationweather.gov/adds/metars/
 
KPOU 200453Z AUTO 29006KT 10SM FEW080 02/M04 A2999 RMK AO2 SLP154 T00171044 400610017